x

South Kodiak - 310nm Ssw Of Kodiak, Ak (46066) Wave Buoy

8:50pm - Mon 29th Aug 2016 All times are UTC.

  • Sig Wave height 3.6ft
  • Swell Direction
  • Peak Period 9s
  • Average Period 6s
  • Wind
    9mph
  • Sea Temp 57°f
  • Air Temp 58°f
  • Sea Pressure 1018.8mb

More Historic Weather Station data

Upgrade to MSW Pro to gain access to the past 30 days of data for over 8000 Wavebouys and Weather Stations around the globe.

Join Pro

Comparision Forecast

View Surf forecast
   
Mon 08/29 8:50pm 3.5ft 9s 6s 9
mph
1018.8mb 57f 58f
7:50pm 4ft 14s 6s 7 9 mph 1018.8mb 57f 58f
6:50pm  -   -   -  7 9 mph 1018.6mb 57f 58f
5:50pm 4.5ft 15s 6s 9 11 mph 1018.6mb 57f 58f
4:50pm 5ft 7s 6s 11 13 mph 1018.3mb 57f 58f
3:50pm 4.5ft 14s 6s 11 13 mph 1018.1mb 57f 58f
2:50pm 4.5ft 7s 6s 13
mph
1017.9mb 57f 58f
1:50pm 5ft 7s 6s 13 16 mph 1017.9mb 57f 58f
12:50pm 4.5ft 7s 6s 11 13 mph 1017.9mb 57f 58f
11:50am 4.5ft 8s 6s 13 16 mph 1017.9mb 57f 58f
10:50am 4.5ft 8s 5s 13 16 mph 1017.6mb 57f 58f
9:50am 4ft 9s 5s 13 16 mph 1017.4mb 57f 58f
8:50am 4.5ft 8s 6s 13 16 mph 1017.5mb 57f 58f
7:50am 4.5ft 15s 6s 13 16 mph 1017.5mb 57f 58f
6:50am 4.5ft 8s 6s 13 16 mph 1017.5mb 57f 58f
5:50am 5ft 9s 6s 13 16 mph 1017.5mb 57f 58f
4:50am 5ft 9s 6s 13 16 mph 1017.2mb 57f 59f
3:50am 4.5ft 9s 6s 11 13 mph 1017.4mb 57f 59f
2:50am 5ft 9s 5s 13
mph
1017.4mb 57f 58f
1:50am 5ft 9s 5s 16 18 mph 1017.7mb 57f 57f
12:50am 4.5ft 15s 5s 18 22 mph 1018.2mb 57f 56f
Sun 08/28 11:50pm 4.5ft 15s 5s 18 22 mph 1018.7mb 57f 56f
10:50pm 4.5ft 15s 5s 18 22 mph 1019mb 57f 56f
9:50pm 4.5ft 9s 5s 18 22 mph 1019.2mb 57f 55f
8:50pm 5ft 9s 6s 16 20 mph 1019.3mb 57f 55f
7:50pm 5ft 9s 6s 18 20 mph 1019.6mb 57f 55f
6:50pm 4.5ft 9s 5s 16 18 mph 1019.8mb 57f 55f
5:50pm 5ft 10s 6s 18 20 mph 1020mb 57f 55f
4:50pm 5ft 8s 6s 16 20 mph 1020.4mb 57f 55f
3:50pm 5ft 15s 6s 18 20 mph 1020.3mb 57f 55f
2:50pm 5ft 9s 6s 16 18 mph 1020.5mb 57f 56f
1:50pm 4.5ft 10s 6s 16 20 mph 1020.8mb 57f 55f
12:50pm 4.5ft 10s 6s 13 18 mph 1021mb 57f 56f
11:50am 4.5ft 9s 6s 16 18 mph 1021.3mb 57f 56f
10:50am 4.5ft 10s 6s 13 18 mph 1021.7mb 57f 56f
9:50am 4.5ft 10s 6s 13 16 mph 1022.2mb 57f 56f
7:50am 4.5ft 9s 6s 11 13 mph 1022.5mb 57f 57f
6:50am 5ft 10s 6s 13 16 mph 1022.8mb 57f 56f
5:50am 5ft 10s 6s 13 16 mph 1022.7mb 57f 56f
4:50am 5ft 10s 7s 13 18 mph 1022.8mb 57f 56f
2:50am 5ft 10s 7s 13 16 mph 1023.4mb 57f 55f
1:50am 4.5ft 8s 7s 9 11 mph 1023.8mb 57f 55f
12:50am 4.5ft 8s 7s 9 11 mph 1024.6mb 57f 55f
Sat 08/27 11:50pm 4.5ft 10s 7s 9 11 mph 1025mb 57f 55f
10:50pm 4.5ft 11s 7s 9 11 mph 1025.4mb 57f 55f
9:50pm 4.5ft 10s 7s 7 9 mph 1025.5mb 57f 55f
8:50pm 5ft 9s 7s 7 9 mph 1025.9mb 57f 54f
7:50pm 5.5ft 10s 7s 4 7 mph 1026mb 57f 54f
6:50pm 5.5ft 11s 7s 7 9 mph 1026.1mb 57f 53f
5:50pm 6ft 11s 7s 4 7 mph 1026.1mb 56f 53f
4:50pm 7ft 11s 8s 4 7 mph 1026.4mb 56f 53f
3:50pm 5.5ft 11s 7s 4 7 mph 1026.2mb 56f 53f
2:50pm 5.5ft 11s 7s 7 9 mph 1026.5mb 56f 53f
1:50pm 5ft 11s 7s 7 11 mph 1026.5mb 56f 54f
12:50pm 5.5ft 11s 7s 7 9 mph 1026.8mb 56f 54f
11:50am 5ft 10s 7s 7 9 mph 1026.9mb 56f 55f
10:50am 5ft 8s 7s 11 13 mph 1027mb 56f 55f
9:50am 5ft 10s 6s 9 13 mph 1027.1mb 56f 55f
8:50am 5.5ft 9s 6s 9 11 mph 1026.8mb 56f 55f
7:50am 6ft 8s 6s 9 13 mph 1026.6mb 56f 55f
6:50am 5.5ft 8s 6s 11 13 mph 1026.4mb 56f 55f
5:50am 5.5ft 9s 6s 13
mph
1026mb 56f 56f
4:50am 6ft 7s 6s 13 16 mph 1025.6mb 56f 56f
3:50am 5.5ft 8s 6s 16 20 mph 1025.4mb 57f 56f
2:50am 5ft 8s 6s 16 18 mph 1025.3mb 57f 57f
1:50am 5.5ft 8s 6s 16 18 mph 1025.2mb 57f 57f
12:50am 5ft 8s 5s 16 18 mph 1025.4mb 56f 57f
Fri 08/26 11:50pm 5ft 8s 5s 18 20 mph 1025.6mb 56f 57f
10:50pm 5.5ft 8s 5s 18 20 mph 1025.8mb 56f 57f
9:50pm 5ft 7s 5s 18 22 mph 1025.8mb 56f 58f
8:50pm 6ft 7s 5s 18 22 mph 1026.1mb 56f 57f
7:50pm 5.5ft 6s 5s 18 22 mph 1026.3mb 56f 58f
6:50pm 6ft 7s 5s 18 22 mph 1026.3mb 56f 58f
5:50pm 5.5ft 7s 5s 18 22 mph 1026.4mb 56f 58f
4:50pm 5.5ft 7s 5s 18 20 mph 1026.4mb 56f 57f
3:50pm 6ft 7s 5s 18 20 mph 1026.4mb 56f 57f
2:50pm 5ft 8s 5s 20 22 mph 1026.8mb 56f 57f
1:50pm 5.5ft 8s 5s 18 20 mph 1027.2mb 56f 57f
12:50pm 6ft 8s 6s 18 22 mph 1027.5mb 56f 57f
11:50am 5.5ft 8s 5s 18 20 mph 1027.9mb 56f 57f
10:50am 6ft 8s 6s 18 22 mph 1028.5mb 56f 57f
9:50am 5ft 8s 5s 18 22 mph 1028.6mb 56f 57f
8:50am 6ft 8s 6s 18 22 mph 1028.6mb 56f 57f
7:50am 6.5ft 8s 6s 18 22 mph 1028.6mb 56f 58f
6:50am 7ft 8s 6s 18 22 mph 1028.7mb 56f 58f
5:50am 7ft 7s 6s 18 20 mph 1028.6mb 56f 58f
4:50am 6.5ft 7s 6s 18 20 mph 1028.3mb 56f 58f
3:50am 6.5ft 7s 6s 18 20 mph 1028.5mb 56f 58f
2:50am 6.5ft 7s 6s 20 22 mph 1028.4mb 56f 58f
1:50am 6.5ft 7s 6s 20 22 mph 1028.6mb 56f 58f
12:50am 7ft 7s 6s 18 25 mph 1029mb 56f 58f
Thu 08/25 11:50pm 6.5ft 6s 6s 20 25 mph 1029mb 56f 58f
10:50pm 6.5ft 7s 6s 20 25 mph 1028.9mb 56f 58f